Metar z pełnej godziny Komunikat METAR ze strony awiacja.imgw.pl Metar G00 EPZG METAR EPZG 220600Z 24009KT 0600 R24/1500N DZ FG OVC003 01/01 Q1029 =